Terminal Aerodrome Forecast
Issued by NWS Sterling, VA

Current Version | Previous Version | Graphics & Text | Print | Product List | Glossary On
Versions: 1 2 3 4 5 6 7 8 9 10 11 12 13 14 15 16 17 18 19 20 21 22 23 24 25 26 27
219
FTUS41 KLWX 241510 AAA
TAFDCA
TAF AMD
KDCA 241510Z 2415/2518 13011G18KT P6SM OVC060
     FM241800 09012G20KT 3SM RA SCT008 BKN015 OVC050
     FM250300 07008KT 3SM -RA BR BKN008 OVC015
     FM250900 VRB04KT 3SM -RA BR BKN008 OVC015
     FM251400 33008KT P6SM BKN015 OVC050=

USA.gov is the U.S. government's official web portal to all federal, state and local government web resources and services.